Time;durP1;ratioP1;P1;durP2;ratioP2;P2;SDS_P1;SDS_P2;PMS_P1;PMS_P2;Temp;Humidity;BMP_temperature;BMP_pressure;BME280_temperature;BME280_humidity;BME280_pressure;Samples;Min_cycle;Max_cycle;Signal;HPM_P1;HPM_P2
2022/10/18 00:01:47;;;;;;;19.42;13.30;;;13.60;99.90;;;;;;5053948;28;20084;-79
2022/10/18 00:04:12;;;;;;;18.38;13.52;;;13.60;99.90;;;;;;5054439;28;20052;-79
2022/10/18 00:06:38;;;;;;;22.83;15.55;;;13.60;99.90;;;;;;5054672;28;20459;-79
2022/10/18 00:09:04;;;;;;;15.68;12.32;;;13.50;99.90;;;;;;5053019;28;20085;-79
2022/10/18 00:11:30;;;;;;;24.88;16.20;;;13.50;99.90;;;;;;5053276;28;20056;-79
2022/10/18 00:13:56;;;;;;;17.20;12.98;;;13.50;99.90;;;;;;5053992;28;20037;-79
2022/10/18 00:16:22;;;;;;;25.98;15.95;;;13.40;99.90;;;;;;5054539;28;20119;-79
2022/10/18 00:18:48;;;;;;;19.50;12.63;;;13.40;99.90;;;;;;5054093;28;20048;-79
2022/10/18 00:21:16;;;;;;;27.67;18.75;;;13.40;99.90;;;;;;5054011;28;20052;-79
2022/10/18 00:23:43;;;;;;;18.42;13.10;;;13.40;99.90;;;;;;5053760;28;20037;-78
2022/10/18 00:26:10;;;;;;;21.02;13.88;;;13.30;99.90;;;;;;5054071;28;20053;-79
2022/10/18 00:28:37;;;;;;;18.48;13.50;;;13.30;99.90;;;;;;5053747;28;20055;-79
2022/10/18 00:31:11;;;;;;;18.52;11.80;;;13.30;99.90;;;;;;5054101;28;20051;-78
2022/10/18 00:33:37;;;;;;;19.58;12.57;;;13.30;99.90;;;;;;5069158;28;20033;-79
2022/10/18 00:36:03;;;;;;;18.45;13.23;;;13.20;99.90;;;;;;5053703;28;20080;-80
2022/10/18 00:38:29;;;;;;;16.20;12.40;;;13.20;99.90;;;;;;5053656;28;20045;-79
2022/10/18 00:40:54;;;;;;;29.35;16.77;;;13.20;99.90;;;;;;5052428;28;20041;-80
2022/10/18 00:43:20;;;;;;;15.23;11.13;;;13.20;99.90;;;;;;5053641;28;20120;-80
2022/10/18 00:45:46;;;;;;;17.38;12.23;;;13.20;99.90;;;;;;5053174;28;20049;-80
2022/10/18 00:48:13;;;;;;;17.00;12.20;;;13.20;99.90;;;;;;5053412;28;20045;-79
2022/10/18 00:50:39;;;;;;;15.43;10.70;;;13.20;99.90;;;;;;5053882;28;20120;-79
2022/10/18 00:53:20;;;;;;;16.42;11.02;;;13.20;99.90;;;;;;5053335;28;20522;-79
2022/10/18 00:55:46;;;;;;;17.45;12.07;;;13.20;99.90;;;;;;5053316;28;20047;-80
2022/10/18 00:58:15;;;;;;;20.00;15.35;;;13.20;99.90;;;;;;5053007;28;20075;-80
2022/10/18 01:00:41;;;;;;;15.43;10.88;;;13.20;99.90;;;;;;5053149;28;20061;-80
2022/10/18 01:03:07;;;;;;;29.42;14.75;;;13.10;99.90;;;;;;5052866;28;20049;-80
2022/10/18 01:05:40;;;;;;;17.15;10.60;;;13.10;99.90;;;;;;5053111;28;20055;-80
2022/10/18 01:08:30;;;;;;;16.05;11.45;;;13.10;99.90;;;;;;5053097;28;20048;-79
2022/10/18 01:11:21;;;;;;;20.73;13.82;;;13.10;99.90;;;;;;5053205;28;20049;-79
2022/10/18 01:13:56;;;;;;;19.35;14.13;;;13.10;99.90;;;;;;5051818;28;20045;-79
2022/10/18 01:16:30;;;;;;;30.38;14.70;;;13.10;99.90;;;;;;5052678;28;20048;-79
2022/10/18 01:19:27;;;;;;;23.40;14.60;;;13.10;99.90;;;;;;5052732;28;20568;-80
2022/10/18 01:22:08;;;;;;;13.02;9.50;;;13.10;99.90;;;;;;5052734;28;20091;-80
2022/10/18 01:24:53;;;;;;;17.15;10.25;;;13.00;99.90;;;;;;5052977;28;20119;-79
2022/10/18 01:27:34;;;;;;;18.77;12.57;;;13.00;99.90;;;;;;5052847;28;20083;-80
2022/10/18 01:30:38;;;;;;;19.23;12.18;;;13.00;99.90;;;;;;5052853;28;20041;-79
2022/10/18 01:33:19;;;;;;;13.50;11.52;;;13.00;99.90;;;;;;5052327;28;20514;-80
2022/10/18 01:35:55;;;;;;;21.23;13.30;;;12.90;99.90;;;;;;5053065;28;20037;-80
2022/10/18 01:38:23;;;;;;;18.20;12.30;;;12.90;99.90;;;;;;5052535;28;20076;-80
2022/10/18 01:40:51;;;;;;;25.02;12.68;;;12.90;99.90;;;;;;5052530;28;20041;-80
2022/10/18 01:43:19;;;;;;;21.67;11.15;;;12.90;99.90;;;;;;5052782;28;20040;-80
2022/10/18 01:45:45;;;;;;;22.40;11.98;;;12.80;99.90;;;;;;5084938;28;20394;-80
2022/10/18 01:48:12;;;;;;;34.50;13.65;;;12.90;99.90;;;;;;5052029;28;20497;-79
2022/10/18 01:50:38;;;;;;;27.05;13.65;;;12.90;99.90;;;;;;5052414;28;20481;-80
2022/10/18 01:53:04;;;;;;;45.42;14.93;;;12.80;99.90;;;;;;5052318;28;20040;-80
2022/10/18 01:55:44;;;;;;;47.08;18.27;;;12.60;99.90;;;;;;5052164;28;20534;-79
2022/10/18 01:58:30;;;;;;;31.00;12.85;;;12.90;99.90;;;;;;5052116;28;20056;-79
2022/10/18 02:01:09;;;;;;;25.55;13.02;;;12.90;99.90;;;;;;5052670;28;20061;-80
2022/10/18 02:03:42;;;;;;;62.75;21.52;;;12.90;99.90;;;;;;5052277;28;20083;-79
2022/10/18 02:06:21;;;;;;;23.38;10.85;;;13.00;99.90;;;;;;5052755;28;20056;-80
2022/10/18 02:09:07;;;;;;;71.93;21.65;;;13.00;99.90;;;;;;5052081;28;20053;-80
2022/10/18 02:11:36;;;;;;;39.03;15.90;;;13.00;99.90;;;;;;5052153;28;20099;-80
2022/10/18 02:14:12;;;;;;;16.27;12.55;;;13.00;99.90;;;;;;5052117;28;20072;-79
2022/10/18 02:16:48;;;;;;;44.55;17.33;;;13.00;99.90;;;;;;5051924;28;20120;-80
2022/10/18 02:19:26;;;;;;;24.73;12.85;;;13.00;99.90;;;;;;5052523;28;20048;-79
2022/10/18 02:21:53;;;;;;;22.67;12.73;;;13.00;99.90;;;;;;5052240;28;20125;-79
2022/10/18 02:24:22;;;;;;;19.77;12.55;;;13.00;99.90;;;;;;5052098;28;20051;-79
2022/10/18 02:26:48;;;;;;;19.48;12.20;;;13.00;99.90;;;;;;5052286;28;20080;-79
2022/10/18 02:29:13;;;;;;;17.83;12.52;;;13.00;99.90;;;;;;5051949;28;20052;-79
2022/10/18 02:31:48;;;;;;;36.78;22.40;;;13.00;99.90;;;;;;5051954;28;20128;-79
2022/10/18 02:34:23;;;;;;;15.20;10.55;;;13.00;99.90;;;;;;5053004;28;20052;-80
2022/10/18 02:36:54;;;;;;;17.48;10.68;;;13.00;99.90;;;;;;5056227;28;20090;-80
2022/10/18 02:39:26;;;;;;;10.75;8.35;;;12.90;99.90;;;;;;5055937;28;20124;-79
2022/10/18 02:41:53;;;;;;;14.07;10.35;;;12.90;99.90;;;;;;5055802;28;20045;-79
2022/10/18 02:44:19;;;;;;;17.58;12.00;;;12.90;99.90;;;;;;5055768;28;20049;-79
2022/10/18 02:46:46;;;;;;;59.88;23.40;;;12.80;99.90;;;;;;5055693;28;20047;-79
2022/10/18 02:49:11;;;;;;;12.38;8.75;;;12.80;99.90;;;;;;5055725;28;20087;-79
2022/10/18 02:51:37;;;;;;;26.67;13.52;;;12.80;99.90;;;;;;5055617;28;20048;-80
2022/10/18 02:54:03;;;;;;;28.90;12.00;;;12.80;99.90;;;;;;5055600;28;20056;-80
2022/10/18 02:56:29;;;;;;;48.13;12.73;;;12.80;99.90;;;;;;5055405;28;20037;-80
2022/10/18 02:58:54;;;;;;;31.52;10.75;;;12.80;99.90;;;;;;5055403;28;20110;-79
2022/10/18 03:01:20;;;;;;;22.95;9.82;;;12.80;99.90;;;;;;5055652;28;20049;-79
2022/10/18 03:03:46;;;;;;;38.78;14.80;;;12.80;99.90;;;;;;5055503;28;20056;-80
2022/10/18 03:06:11;;;;;;;15.32;10.27;;;12.90;99.90;;;;;;5055188;28;20394;-79
2022/10/18 03:08:37;;;;;;;25.23;13.00;;;12.90;99.90;;;;;;5055364;28;20191;-79
2022/10/18 03:11:03;;;;;;;27.48;14.25;;;12.90;99.90;;;;;;5055381;28;20055;-79
2022/10/18 03:13:28;;;;;;;105.78;28.02;;;13.00;99.90;;;;;;5055306;28;20071;-79
2022/10/18 03:15:54;;;;;;;43.10;16.45;;;13.00;99.90;;;;;;5055424;28;20059;-79
2022/10/18 03:18:20;;;;;;;37.83;15.15;;;13.10;99.90;;;;;;5054282;28;20403;-79
2022/10/18 03:20:45;;;;;;;90.47;25.50;;;13.10;99.90;;;;;;5055226;28;20045;-79
2022/10/18 03:23:11;;;;;;;25.13;11.80;;;13.20;99.90;;;;;;5054065;28;20051;-79
2022/10/18 03:25:37;;;;;;;54.78;16.13;;;13.20;99.90;;;;;;5055225;28;20559;-79
2022/10/18 03:28:03;;;;;;;69.20;20.67;;;13.20;99.90;;;;;;5055332;28;20094;-79
2022/10/18 03:30:28;;;;;;;136.13;35.85;;;13.20;99.90;;;;;;5054204;28;20433;-79
2022/10/18 03:32:54;;;;;;;41.13;14.55;;;13.30;99.90;;;;;;5055336;28;20370;-79
2022/10/18 03:35:20;;;;;;;146.85;30.67;;;13.20;99.90;;;;;;5054411;28;20441;-79
2022/10/18 03:37:46;;;;;;;92.35;26.88;;;13.30;99.90;;;;;;5054874;28;20049;-79
2022/10/18 03:40:11;;;;;;;147.02;36.05;;;13.30;99.90;;;;;;5054964;28;20524;-79
2022/10/18 03:42:37;;;;;;;37.90;14.23;;;13.30;99.90;;;;;;5054600;28;20132;-79
2022/10/18 03:45:03;;;;;;;69.00;18.60;;;13.30;99.90;;;;;;5054255;28;20052;-80
2022/10/18 03:47:29;;;;;;;94.82;26.25;;;13.30;99.90;;;;;;5053999;28;20052;-79
2022/10/18 03:49:55;;;;;;;38.75;14.27;;;13.30;99.90;;;;;;5054476;28;20052;-79
2022/10/18 03:52:20;;;;;;;56.80;15.02;;;13.30;99.90;;;;;;5054446;28;20052;-79
2022/10/18 03:54:46;;;;;;;27.95;14.27;;;13.30;99.90;;;;;;5053237;28;20041;-79
2022/10/18 03:57:11;;;;;;;40.45;14.73;;;13.30;99.90;;;;;;5054558;28;20052;-79
2022/10/18 03:59:37;;;;;;;41.78;16.67;;;13.30;99.90;;;;;;5054041;28;20052;-79
2022/10/18 04:02:03;;;;;;;45.53;16.90;;;13.30;99.90;;;;;;5054557;28;20055;-79
2022/10/18 04:04:29;;;;;;;25.33;13.52;;;13.30;99.90;;;;;;5053161;28;20045;-79
2022/10/18 04:06:55;;;;;;;59.25;24.10;;;13.30;99.90;;;;;;5054279;28;20106;-79
2022/10/18 04:09:20;;;;;;;18.15;10.10;;;13.30;99.90;;;;;;5054273;28;20451;-79
2022/10/18 04:11:49;;;;;;;19.23;11.05;;;13.30;99.90;;;;;;5054136;28;20132;-79
2022/10/18 04:14:15;;;;;;;35.95;15.48;;;13.30;99.90;;;;;;5054668;28;20045;-79
2022/10/18 04:16:41;;;;;;;18.30;10.75;;;13.30;99.90;;;;;;5054417;28;20534;-80
2022/10/18 04:19:06;;;;;;;29.00;12.25;;;13.30;99.90;;;;;;5054607;28;20044;-80
2022/10/18 04:21:32;;;;;;;33.47;14.48;;;13.20;99.90;;;;;;5054576;28;20485;-81
2022/10/18 04:23:58;;;;;;;29.88;13.77;;;13.30;99.90;;;;;;5053991;28;20363;-81
2022/10/18 04:26:23;;;;;;;39.33;13.55;;;13.20;99.90;;;;;;5054247;28;20515;-81
2022/10/18 04:28:49;;;;;;;40.80;14.55;;;13.20;99.90;;;;;;5053921;28;20057;-80
2022/10/18 04:31:15;;;;;;;21.88;10.13;;;13.20;99.90;;;;;;5053821;28;20051;-81
2022/10/18 04:33:40;;;;;;;35.70;12.68;;;13.20;99.90;;;;;;5053127;28;20047;-81
2022/10/18 04:36:06;;;;;;;30.23;12.40;;;13.20;99.90;;;;;;5053773;28;20044;-81
2022/10/18 04:38:32;;;;;;;15.80;9.38;;;13.20;99.90;;;;;;5053485;28;20044;-81
2022/10/18 04:40:57;;;;;;;12.88;9.75;;;13.10;99.90;;;;;;5053321;28;20165;-80
2022/10/18 04:43:23;;;;;;;26.33;9.63;;;13.10;99.90;;;;;;5052065;28;20059;-79
2022/10/18 04:45:50;;;;;;;11.75;7.97;;;13.10;99.90;;;;;;5053723;28;20053;-80
2022/10/18 04:48:16;;;;;;;30.92;13.77;;;13.10;99.90;;;;;;5053500;28;20049;-80
2022/10/18 04:50:42;;;;;;;16.50;8.77;;;13.10;99.90;;;;;;5053569;28;20511;-80
2022/10/18 04:53:07;;;;;;;19.73;9.80;;;13.10;99.90;;;;;;5053749;28;20049;-80
2022/10/18 04:55:33;;;;;;;16.00;8.73;;;13.10;99.90;;;;;;5053244;28;20485;-80
2022/10/18 04:57:59;;;;;;;17.48;9.20;;;13.10;99.90;;;;;;5053024;28;20059;-80
2022/10/18 05:00:24;;;;;;;11.88;9.27;;;13.10;99.90;;;;;;5085042;28;20124;-80
2022/10/18 05:02:55;;;;;;;21.92;9.68;;;13.10;99.90;;;;;;5052780;28;20049;-79
2022/10/18 05:05:21;;;;;;;31.33;13.35;;;13.00;99.90;;;;;;5053007;28;20048;-80
2022/10/18 05:07:47;;;;;;;12.88;9.75;;;13.00;99.90;;;;;;5052942;28;20041;-79
2022/10/18 05:10:12;;;;;;;16.90;9.57;;;13.00;99.90;;;;;;5052596;28;20081;-80
2022/10/18 05:12:38;;;;;;;33.67;14.35;;;13.00;99.90;;;;;;5052579;28;20063;-80
2022/10/18 05:15:04;;;;;;;17.70;8.75;;;13.00;99.90;;;;;;5053074;28;20099;-80
2022/10/18 05:17:30;;;;;;;20.52;10.02;;;13.00;99.90;;;;;;5053196;28;20087;-80
2022/10/18 05:19:55;;;;;;;15.35;9.43;;;13.00;99.90;;;;;;5035448;28;20045;-80
2022/10/18 05:22:21;;;;;;;14.35;8.40;;;13.00;99.90;;;;;;5085197;28;20486;-79
2022/10/18 05:24:47;;;;;;;14.55;8.85;;;12.90;99.90;;;;;;5052578;28;20049;-79
2022/10/18 05:27:12;;;;;;;18.33;10.63;;;12.90;99.90;;;;;;5052484;28;20047;-79
2022/10/18 05:29:38;;;;;;;15.63;10.35;;;12.90;99.90;;;;;;5053061;28;20224;-80
2022/10/18 05:32:04;;;;;;;14.98;9.43;;;12.90;99.90;;;;;;5052475;28;20486;-80
2022/10/18 05:34:30;;;;;;;19.80;10.10;;;12.90;99.90;;;;;;5051668;28;20487;-81
2022/10/18 05:36:56;;;;;;;19.13;9.65;;;12.80;99.90;;;;;;5052466;28;20512;-80
2022/10/18 05:39:22;;;;;;;14.80;8.40;;;12.80;99.90;;;;;;5052505;28;20065;-80
2022/10/18 05:41:48;;;;;;;13.20;8.38;;;12.80;99.90;;;;;;5052246;28;20506;-80
2022/10/18 05:44:14;;;;;;;13.60;8.35;;;12.70;99.90;;;;;;5051945;28;20523;-80
2022/10/18 05:46:39;;;;;;;18.40;9.32;;;12.70;99.90;;;;;;5052469;28;20041;-81
2022/10/18 05:49:05;;;;;;;26.90;9.73;;;12.70;99.90;;;;;;5052361;28;20187;-80
2022/10/18 05:51:31;;;;;;;33.17;13.02;;;12.80;99.90;;;;;;5052339;28;20049;-80
2022/10/18 05:53:57;;;;;;;22.23;9.68;;;12.80;99.90;;;;;;5052625;28;20049;-80
2022/10/18 05:56:23;;;;;;;28.70;11.57;;;12.70;99.90;;;;;;5052216;28;20045;-80
2022/10/18 05:58:50;;;;;;;11.02;6.13;;;12.70;99.90;;;;;;5050663;28;20049;-80
2022/10/18 06:01:16;;;;;;;21.67;10.75;;;12.70;99.90;;;;;;5068417;28;20048;-80
2022/10/18 06:03:41;;;;;;;31.45;12.68;;;12.70;99.90;;;;;;5052101;28;20471;-80
2022/10/18 06:06:10;;;;;;;18.52;10.07;;;12.70;99.90;;;;;;5052215;28;20107;-80
2022/10/18 06:08:38;;;;;;;26.42;12.77;;;12.70;99.90;;;;;;5051356;28;20065;-80
2022/10/18 06:11:10;;;;;;;25.17;9.65;;;12.70;99.90;;;;;;5052285;28;20119;-80
2022/10/18 06:13:43;;;;;;;20.10;10.45;;;12.70;99.90;;;;;;5051848;28;20045;-79
2022/10/18 06:16:10;;;;;;;13.40;7.93;;;12.70;99.90;;;;;;5052600;28;20049;-79
2022/10/18 06:18:36;;;;;;;25.17;9.95;;;12.70;99.90;;;;;;5052667;28;20128;-81
2022/10/18 06:21:01;;;;;;;33.17;12.10;;;12.70;99.90;;;;;;5052527;28;20080;-79
2022/10/18 06:23:27;;;;;;;35.70;10.88;;;12.60;99.90;;;;;;5052324;28;20454;-82
2022/10/18 06:25:57;;;;;;;13.48;8.40;;;12.60;99.90;;;;;;5052415;28;20128;-80
2022/10/18 06:28:23;;;;;;;25.23;9.35;;;12.50;99.90;;;;;;5052110;28;20053;-79
2022/10/18 06:30:48;;;;;;;8.45;6.47;;;12.50;99.90;;;;;;5052178;28;20406;-80
2022/10/18 06:33:14;;;;;;;29.15;10.00;;;12.50;99.90;;;;;;5052287;28;20484;-79
2022/10/18 06:35:40;;;;;;;15.77;6.18;;;12.50;99.90;;;;;;5051429;28;20367;-79
2022/10/18 06:38:05;;;;;;;33.63;10.13;;;12.50;99.90;;;;;;5052549;28;20473;-79
2022/10/18 06:40:36;;;;;;;30.95;10.27;;;12.40;99.90;;;;;;5052393;28;20072;-79
2022/10/18 06:43:05;;;;;;;22.50;8.63;;;12.40;99.90;;;;;;5051746;28;20128;-78
2022/10/18 06:45:32;;;;;;;33.30;10.18;;;12.40;99.90;;;;;;5051891;28;20048;-82
2022/10/18 06:47:58;;;;;;;26.92;8.25;;;12.40;99.90;;;;;;5051922;28;20080;-80
2022/10/18 06:50:24;;;;;;;21.02;7.75;;;12.40;99.90;;;;;;5052069;28;20048;-80
2022/10/18 06:52:51;;;;;;;20.42;8.80;;;12.40;99.90;;;;;;5051840;28;20103;-80
2022/10/18 06:55:17;;;;;;;89.22;15.63;;;12.40;99.90;;;;;;5051706;28;20049;-80
2022/10/18 06:57:43;;;;;;;24.27;9.38;;;12.40;99.90;;;;;;5051719;28;20501;-79
2022/10/18 07:00:09;;;;;;;23.65;9.15;;;12.40;99.90;;;;;;5050606;28;20053;-79
2022/10/18 07:02:36;;;;;;;30.33;8.70;;;12.50;99.90;;;;;;5051584;28;20137;-81
2022/10/18 07:05:02;;;;;;;38.72;9.63;;;12.40;99.90;;;;;;5051685;28;20479;-80
2022/10/18 07:07:30;;;;;;;54.65;12.18;;;12.50;99.90;;;;;;5051764;28;20041;-81
2022/10/18 07:09:55;;;;;;;58.08;11.35;;;12.50;99.90;;;;;;5051657;28;20041;-79
2022/10/18 07:12:21;;;;;;;17.00;6.50;;;12.50;99.90;;;;;;5051923;28;20119;-81
2022/10/18 07:14:47;;;;;;;48.75;11.00;;;12.50;99.90;;;;;;5051533;28;20059;-79
2022/10/18 07:17:12;;;;;;;13.63;6.70;;;12.60;99.90;;;;;;5051737;28;20051;-80
2022/10/18 07:19:38;;;;;;;11.75;6.82;;;12.60;99.90;;;;;;5051711;28;20476;-80
2022/10/18 07:22:04;;;;;;;22.05;7.10;;;12.70;99.90;;;;;;5055050;28;20103;-79
2022/10/18 07:24:29;;;;;;;13.88;5.95;;;12.70;99.90;;;;;;5055167;28;20037;-80
2022/10/18 07:26:55;;;;;;;16.98;6.30;;;12.70;99.90;;;;;;5054822;28;20051;-80
2022/10/18 07:29:21;;;;;;;7.82;4.88;;;12.70;99.90;;;;;;5055112;28;20130;-79
2022/10/18 07:31:46;;;;;;;16.05;7.55;;;12.70;99.90;;;;;;5055141;28;20041;-79
2022/10/18 07:34:13;;;;;;;14.98;5.90;;;12.70;99.90;;;;;;5054246;28;20044;-77
2022/10/18 07:36:38;;;;;;;18.58;6.32;;;12.70;99.90;;;;;;5055022;28;20037;-79
2022/10/18 07:39:04;;;;;;;29.15;7.50;;;12.70;99.90;;;;;;5055244;28;20488;-78
2022/10/18 07:41:33;;;;;;;19.00;7.05;;;12.70;99.90;;;;;;5054764;28;20051;-82
2022/10/18 07:43:59;;;;;;;8.95;4.97;;;12.90;99.90;;;;;;5054595;28;20133;-79
2022/10/18 07:46:25;;;;;;;16.88;6.72;;;12.90;99.90;;;;;;5054727;28;20053;-79
2022/10/18 07:48:51;;;;;;;14.30;7.13;;;13.00;99.90;;;;;;5054705;28;20471;-81
2022/10/18 07:51:19;;;;;;;10.32;6.53;;;13.20;99.90;;;;;;5054867;28;20120;-80
2022/10/18 07:53:45;;;;;;;8.73;6.90;;;13.10;99.90;;;;;;5053509;28;20088;-79
2022/10/18 07:56:17;;;;;;;10.65;6.93;;;13.20;99.90;;;;;;5054560;28;20056;-81
2022/10/18 07:58:45;;;;;;;8.50;6.07;;;13.20;99.90;;;;;;5054399;28;20114;-81
2022/10/18 08:01:12;;;;;;;8.73;7.07;;;13.20;99.90;;;;;;5054875;28;20071;-80
2022/10/18 08:03:39;;;;;;;12.00;6.85;;;13.20;99.90;;;;;;5054242;28;20083;-79
2022/10/18 08:06:07;;;;;;;8.60;6.22;;;13.30;99.90;;;;;;5054695;28;20057;-79
2022/10/18 08:08:35;;;;;;;16.10;6.68;;;13.20;99.90;;;;;;5054722;28;20045;-80
2022/10/18 08:11:06;;;;;;;10.23;7.97;;;13.20;99.90;;;;;;5054270;28;20048;-80
2022/10/18 08:13:32;;;;;;;12.95;8.27;;;13.30;99.90;;;;;;5054442;28;20044;-80
2022/10/18 08:16:04;;;;;;;13.77;6.90;;;13.30;99.90;;;;;;5054134;28;20391;-81
2022/10/18 08:18:30;;;;;;;8.93;6.13;;;13.40;99.90;;;;;;5054222;28;20091;-80
2022/10/18 08:20:57;;;;;;;8.77;5.63;;;13.40;99.90;;;;;;5054144;28;20079;-79
2022/10/18 08:23:23;;;;;;;9.65;6.18;;;13.40;99.90;;;;;;5053962;28;20039;-79
2022/10/18 08:25:49;;;;;;;8.02;5.75;;;13.30;99.90;;;;;;5053572;28;20049;-79
2022/10/18 08:28:16;;;;;;;9.85;6.82;;;13.20;99.90;;;;;;5054119;28;20085;-79
2022/10/18 08:30:42;;;;;;;9.20;6.13;;;13.20;99.90;;;;;;5053102;28;20053;-79
2022/10/18 08:33:08;;;;;;;8.68;5.90;;;13.20;99.90;;;;;;5053227;28;20049;-79
2022/10/18 08:35:34;;;;;;;11.13;6.25;;;13.10;99.90;;;;;;5053749;28;20132;-79
2022/10/18 08:38:00;;;;;;;7.82;5.20;;;13.10;99.90;;;;;;5053614;28;20060;-78
2022/10/18 08:40:26;;;;;;;10.30;6.78;;;13.20;99.90;;;;;;5053424;28;20045;-79
2022/10/18 08:43:13;;;;;;;7.55;5.40;;;13.20;99.90;;;;;;5053727;28;20079;-80
2022/10/18 08:45:43;;;;;;;9.68;6.13;;;13.30;99.90;;;;;;5054138;28;20126;-79
2022/10/18 08:48:33;;;;;;;5.50;4.15;;;13.30;99.90;;;;;;5053405;28;20044;-80
2022/10/18 08:50:59;;;;;;;8.80;5.38;;;13.40;99.90;;;;;;5053751;28;20524;-80
2022/10/18 08:53:50;;;;;;;11.07;5.70;;;13.40;99.90;;;;;;5053285;28;20041;-79
2022/10/18 08:56:20;;;;;;;10.60;5.72;;;13.40;99.90;;;;;;5053365;28;20048;-79
2022/10/18 08:58:46;;;;;;;7.20;5.80;;;13.40;99.90;;;;;;5053093;28;20122;-80
2022/10/18 09:01:20;;;;;;;9.82;5.53;;;13.50;99.90;;;;;;5053266;28;20057;-79
2022/10/18 09:04:04;;;;;;;17.45;5.63;;;13.50;99.90;;;;;;5085982;28;20412;-79
2022/10/18 09:06:43;;;;;;;7.72;5.10;;;13.60;99.90;;;;;;5053114;28;20048;-81
2022/10/18 09:09:22;;;;;;;5.22;4.65;;;13.70;99.90;;;;;;5053734;28;20045;-80
2022/10/18 09:12:02;;;;;;;8.50;5.60;;;13.70;99.90;;;;;;5053531;28;20128;-79
2022/10/18 09:15:03;;;;;;;8.57;4.95;;;13.90;99.90;;;;;;5052992;28;20045;-80
2022/10/18 09:17:34;;;;;;;8.57;4.65;;;13.90;99.90;;;;;;5020448;28;20403;-80
2022/10/18 09:20:21;;;;;;;5.18;4.10;;;14.00;99.90;;;;;;5052911;28;20048;-77
2022/10/18 09:22:46;;;;;;;8.27;3.80;;;14.10;99.90;;;;;;5054343;28;20071;-72
2022/10/18 09:25:43;;;;;;;11.88;4.53;;;14.20;99.90;;;;;;5055566;28;20044;-80
2022/10/18 09:28:18;;;;;;;8.02;3.72;;;14.30;99.90;;;;;;5055238;28;20084;-79
2022/10/18 09:30:46;;;;;;;4.10;3.53;;;14.50;99.90;;;;;;5052479;28;20048;-78
2022/10/18 09:33:38;;;;;;;5.78;4.30;;;14.60;99.90;;;;;;5052755;28;20059;-78
2022/10/18 09:36:09;;;;;;;10.98;4.75;;;14.70;99.90;;;;;;5052827;28;20041;-79
2022/10/18 09:38:49;;;;;;;6.95;4.50;;;14.80;99.90;;;;;;5052434;28;20052;-78
2022/10/18 09:41:18;;;;;;;10.25;4.22;;;14.90;99.90;;;;;;5052714;28;20132;-78
2022/10/18 09:44:09;;;;;;;6.88;3.70;;;15.10;99.90;;;;;;5051286;28;20074;-79
2022/10/18 09:46:44;;;;;;;5.80;3.72;;;15.20;99.90;;;;;;5052482;28;20126;-81
2022/10/18 09:49:20;;;;;;;5.50;3.17;;;15.30;99.90;;;;;;5052344;28;20103;-79
2022/10/18 09:51:48;;;;;;;8.48;2.88;;;15.40;99.90;;;;;;5051992;28;20047;-78
2022/10/18 09:54:24;;;;;;;9.90;2.60;;;15.60;99.90;;;;;;5052211;28;20045;-83
2022/10/18 09:57:01;;;;;;;7.57;2.88;;;15.70;99.90;;;;;;5084752;28;20060;-79
2022/10/18 09:59:45;;;;;;;9.20;2.72;;;15.80;99.90;;;;;;5052247;28;20061;-78
2022/10/18 10:02:22;;;;;;;5.80;2.33;;;15.90;99.90;;;;;;5052636;28;20079;-81
2022/10/18 10:04:53;;;;;;;11.50;2.97;;;16.00;99.90;;;;;;5052285;28;20048;-80
2022/10/18 10:07:34;;;;;;;4.63;2.08;;;16.10;99.90;;;;;;5052327;28;20041;-81
2022/10/18 10:10:22;;;;;;;5.47;2.63;;;16.20;99.90;;;;;;5068126;28;20056;-78
2022/10/18 10:13:15;;;;;;;7.03;2.70;;;16.70;99.90;;;;;;5052825;28;20045;-79
2022/10/18 10:15:53;;;;;;;9.68;3.92;;;17.20;99.90;;;;;;5052246;28;20064;-77
2022/10/18 10:18:40;;;;;;;8.80;2.80;;;18.30;99.90;;;;;;5051879;28;20106;-79
2022/10/18 10:21:15;;;;;;;6.38;2.42;;;19.40;99.90;;;;;;5051607;28;20122;-81
2022/10/18 10:23:50;;;;;;;11.27;2.85;;;20.40;99.90;;;;;;5052022;28;20049;-77
2022/10/18 10:26:26;;;;;;;8.70;2.80;;;20.80;99.90;;;;;;5052649;28;20114;-80
2022/10/18 10:28:52;;;;;;;7.40;2.40;;;20.50;99.90;;;;;;5052009;28;20084;-80
2022/10/18 10:31:25;;;;;;;6.90;2.58;;;19.90;99.90;;;;;;5052276;28;20102;-84
2022/10/18 10:34:18;;;;;;;9.43;2.42;;;19.20;99.90;;;;;;5051866;28;20041;-81
2022/10/18 10:36:48;;;;;;;5.40;3.42;;;18.50;99.90;;;;;;5052174;28;20045;-80
2022/10/18 10:39:17;;;;;;;9.93;2.53;;;18.10;99.90;;;;;;5051571;28;20491;-78
2022/10/18 10:41:50;;;;;;;5.30;2.13;;;17.80;99.90;;;;;;5052023;28;20041;-79
2022/10/18 10:44:29;;;;;;;7.50;2.88;;;17.60;99.90;;;;;;5051886;28;20548;-76
2022/10/18 10:46:56;;;;;;;5.22;2.58;;;17.30;99.90;;;;;;5051844;28;20049;-78
2022/10/18 10:49:41;;;;;;;8.00;2.95;;;17.10;99.90;;;;;;5051801;28;20064;-80
2022/10/18 10:52:17;;;;;;;9.18;2.67;;;16.90;99.90;;;;;;5051807;28;20079;-80
2022/10/18 10:54:44;;;;;;;4.15;2.40;;;16.80;99.90;;;;;;5051934;28;20045;-79
2022/10/18 10:57:11;;;;;;;6.50;2.72;;;16.70;99.90;;;;;;5055783;28;20045;-79
2022/10/18 10:59:51;;;;;;;5.18;1.98;;;16.60;99.90;;;;;;5055567;28;20068;-80
2022/10/18 11:02:22;;;;;;;4.38;1.95;;;16.60;99.90;;;;;;5087789;28;20049;-79
2022/10/18 11:04:53;;;;;;;7.15;1.95;;;16.60;99.90;;;;;;5055498;28;20044;-80
2022/10/18 11:07:34;;;;;;;7.50;2.60;;;16.60;99.90;;;;;;5056027;28;20132;-79
2022/10/18 11:10:00;;;;;;;8.15;2.70;;;16.70;99.90;;;;;;5056034;28;20049;-79
2022/10/18 11:12:32;;;;;;;2.78;1.83;;;16.80;99.90;;;;;;5055668;28;20459;-80
2022/10/18 11:15:12;;;;;;;6.53;2.28;;;16.90;99.90;;;;;;5055934;28;20053;-80
2022/10/18 11:17:38;;;;;;;7.97;2.22;;;16.80;99.90;;;;;;5055346;28;20057;-79
2022/10/18 11:20:08;;;;;;;4.05;1.75;;;16.80;99.90;;;;;;5055363;28;20087;-80
2022/10/18 11:22:43;;;;;;;6.38;1.63;;;16.70;99.90;;;;;;5055531;28;20045;-79
2022/10/18 11:25:14;;;;;;;4.30;1.80;;;16.60;99.90;;;;;;5055277;28;20447;-79
2022/10/18 11:28:01;;;;;;;8.52;1.98;;;16.70;99.90;;;;;;5055277;28;20048;-81
2022/10/18 11:30:36;;;;;;;9.30;2.17;;;16.60;99.90;;;;;;5055389;28;20107;-79
2022/10/18 11:33:21;;;;;;;4.85;1.80;;;16.60;99.90;;;;;;5055040;28;20045;-78
2022/10/18 11:36:14;;;;;;;8.68;2.47;;;16.60;99.90;;;;;;5088221;28;20120;-78
2022/10/18 11:39:06;;;;;;;;;;;16.70;99.90;;;;;;5055499;28;20053;-80
2022/10/18 11:41:32;;;;;;;5.25;2.22;;;16.70;99.90;;;;;;5046008;28;19967;-79
2022/10/18 11:44:01;;;;;;;4.47;1.70;;;16.80;99.90;;;;;;5054777;28;20470;-82
2022/10/18 11:46:45;;;;;;;7.55;1.73;;;16.90;99.90;;;;;;5054621;28;20423;-80
2022/10/18 11:49:44;;;;;;;4.07;1.90;;;17.00;99.90;;;;;;5055004;28;20049;-81
2022/10/18 11:52:57;;;;;;;2.83;1.90;;;17.10;99.90;;;;;;5055166;28;20136;-79
2022/10/18 11:55:48;;;;;;;5.57;2.10;;;17.10;99.90;;;;;;5046461;28;20078;-78
2022/10/18 11:58:46;;;;;;;10.20;3.25;;;17.30;99.90;;;;;;5055041;28;20048;-78
2022/10/18 12:01:33;;;;;;;9.23;1.85;;;17.20;99.90;;;;;;5054910;28;20052;-82
2022/10/18 12:04:18;;;;;;;5.18;2.15;;;17.00;99.90;;;;;;5055075;28;20070;-78
2022/10/18 12:06:47;;;;;;;4.65;2.85;;;16.90;99.90;;;;;;5053221;28;20091;-79
2022/10/18 12:09:24;;;;;;;7.20;2.00;;;16.70;99.90;;;;;;5054303;28;20079;-78
2022/10/18 12:11:57;;;;;;;4.03;1.92;;;16.70;99.90;;;;;;5054264;28;20048;-79
2022/10/18 12:14:35;;;;;;;4.03;1.90;;;16.60;99.90;;;;;;5053610;28;20072;-82
2022/10/18 12:17:14;;;;;;;5.95;2.30;;;16.40;99.90;;;;;;5054085;28;20075;-79
2022/10/18 12:19:41;;;;;;;3.15;2.03;;;16.40;99.90;;;;;;5059025;28;20075;-82
2022/10/18 12:22:35;;;;;;;6.70;2.03;;;16.60;99.90;;;;;;5058260;28;20107;-82
2022/10/18 12:25:01;;;;;;;12.70;2.15;;;16.80;99.90;;;;;;5035114;28;20064;-78
2022/10/18 12:27:42;;;;;;;8.23;1.77;;;17.10;99.90;;;;;;5058650;28;20047;-79
2022/10/18 12:30:22;;;;;;;3.53;1.70;;;17.30;99.90;;;;;;5058496;28;20080;-83
2022/10/18 12:32:52;;;;;;;3.75;1.95;;;17.60;99.90;;;;;;5057341;28;20045;-77
2022/10/18 12:35:19;;;;;;;9.88;2.30;;;17.70;99.90;;;;;;5087333;28;20109;-81
2022/10/18 12:38:06;;;;;;;7.93;2.00;;;17.70;99.90;;;;;;5053653;28;20049;-78
2022/10/18 12:40:37;;;;;;;7.10;1.73;;;17.70;99.90;;;;;;5054093;28;20071;-79
2022/10/18 12:43:09;;;;;;;5.65;2.40;;;17.70;99.90;;;;;;5053936;28;20041;-80
2022/10/18 12:45:50;;;;;;;7.93;2.72;;;17.70;99.90;;;;;;5053813;28;20057;-80
2022/10/18 12:48:28;;;;;;;12.88;3.78;;;17.50;99.90;;;;;;5053495;28;20091;-78
2022/10/18 12:51:21;;;;;;;4.60;2.28;;;17.20;99.90;;;;;;5053673;28;20045;-80
2022/10/18 12:53:53;;;;;;;5.82;1.48;;;17.00;99.90;;;;;;5050894;28;20136;-79
2022/10/18 12:56:27;;;;;;;5.17;2.30;;;16.80;99.90;;;;;;5053608;28;20110;-80